sensor_id;sensor_type;location;lat;lon;timestamp;pressure;altitude;pressure_sealevel;temperature;humidity
54978;BME280;40873;47.522;19.106;2023-03-26T00:01:36;99834.81;;;9.10;71.75
54978;BME280;40873;47.522;19.106;2023-03-26T00:04:05;99834.56;;;9.00;72.34
54978;BME280;40873;47.522;19.106;2023-03-26T00:06:35;99815.47;;;8.97;72.20
54978;BME280;40873;47.522;19.106;2023-03-26T00:09:07;99814.63;;;8.96;72.29
54978;BME280;40873;47.522;19.106;2023-03-26T00:11:34;99806.56;;;8.99;72.28
54978;BME280;40873;47.522;19.106;2023-03-26T00:14:02;99816.97;;;9.01;71.88
54978;BME280;40873;47.522;19.106;2023-03-26T00:16:30;99810.59;;;9.05;71.28
54978;BME280;40873;47.522;19.106;2023-03-26T00:18:58;99812.19;;;9.07;71.49
54978;BME280;40873;47.522;19.106;2023-03-26T00:21:28;99813.63;;;8.99;71.51
54978;BME280;40873;47.522;19.106;2023-03-26T00:23:59;99814.56;;;8.98;71.49
54978;BME280;40873;47.522;19.106;2023-03-26T00:26:26;99811.94;;;8.84;72.41
54978;BME280;40873;47.522;19.106;2023-03-26T00:28:56;99818.50;;;8.91;71.88
54978;BME280;40873;47.522;19.106;2023-03-26T00:31:23;99817.94;;;8.86;72.01
54978;BME280;40873;47.522;19.106;2023-03-26T00:33:51;99814.47;;;8.85;72.21
54978;BME280;40873;47.522;19.106;2023-03-26T00:36:24;99812.69;;;8.86;71.97
54978;BME280;40873;47.522;19.106;2023-03-26T00:38:53;99814.75;;;8.81;72.15
54978;BME280;40873;47.522;19.106;2023-03-26T00:41:23;99817.56;;;8.77;72.71
54978;BME280;40873;47.522;19.106;2023-03-26T00:43:55;99812.47;;;8.74;72.52
54978;BME280;40873;47.522;19.106;2023-03-26T00:46:27;99808.16;;;8.88;72.00
54978;BME280;40873;47.522;19.106;2023-03-26T00:48:55;99802.44;;;8.81;72.49
54978;BME280;40873;47.522;19.106;2023-03-26T00:51:27;99806.38;;;8.88;71.95
54978;BME280;40873;47.522;19.106;2023-03-26T00:53:55;99800.00;;;8.78;72.30
54978;BME280;40873;47.522;19.106;2023-03-26T00:56:23;99800.94;;;8.77;73.09
54978;BME280;40873;47.522;19.106;2023-03-26T00:58:50;99804.88;;;8.70;73.89
54978;BME280;40873;47.522;19.106;2023-03-26T01:01:21;99792.97;;;8.64;74.39
54978;BME280;40873;47.522;19.106;2023-03-26T01:03:55;99790.50;;;8.61;73.97
54978;BME280;40873;47.522;19.106;2023-03-26T01:06:36;99788.16;;;8.57;75.25
54978;BME280;40873;47.522;19.106;2023-03-26T01:09:15;99782.91;;;8.57;75.13
54978;BME280;40873;47.522;19.106;2023-03-26T01:11:44;99789.13;;;8.56;76.08
54978;BME280;40873;47.522;19.106;2023-03-26T01:14:15;99787.69;;;8.50;75.98
54978;BME280;40873;47.522;19.106;2023-03-26T01:16:51;99790.44;;;8.48;75.92
54978;BME280;40873;47.522;19.106;2023-03-26T01:22:09;99794.13;;;8.30;77.83
54978;BME280;40873;47.522;19.106;2023-03-26T01:24:38;99801.53;;;8.23;78.31
54978;BME280;40873;47.522;19.106;2023-03-26T01:27:57;99788.84;;;8.16;78.94
54978;BME280;40873;47.522;19.106;2023-03-26T01:35:50;99798.38;;;8.03;79.46
54978;BME280;40873;47.522;19.106;2023-03-26T01:38:31;99804.81;;;7.97;81.27
54978;BME280;40873;47.522;19.106;2023-03-26T01:41:16;99796.75;;;7.86;82.06
54978;BME280;40873;47.522;19.106;2023-03-26T01:44:05;99804.03;;;7.81;82.19
54978;BME280;40873;47.522;19.106;2023-03-26T01:46:35;99800.81;;;7.76;82.31
54978;BME280;40873;47.522;19.106;2023-03-26T01:49:03;99804.53;;;7.72;82.82
54978;BME280;40873;47.522;19.106;2023-03-26T01:51:33;99801.59;;;7.62;84.89
54978;BME280;40873;47.522;19.106;2023-03-26T01:54:03;99795.75;;;7.57;85.10
54978;BME280;40873;47.522;19.106;2023-03-26T01:56:54;99794.25;;;7.53;85.47
54978;BME280;40873;47.522;19.106;2023-03-26T02:02:27;99808.56;;;7.47;85.88
54978;BME280;40873;47.522;19.106;2023-03-26T02:07:37;99810.59;;;7.26;87.80
54978;BME280;40873;47.522;19.106;2023-03-26T02:10:11;99821.00;;;7.28;87.95
54978;BME280;40873;47.522;19.106;2023-03-26T02:12:40;99816.88;;;7.24;88.22
54978;BME280;40873;47.522;19.106;2023-03-26T02:15:09;99811.88;;;7.19;88.69
54978;BME280;40873;47.522;19.106;2023-03-26T02:17:37;99822.53;;;7.16;88.72
54978;BME280;40873;47.522;19.106;2023-03-26T02:20:11;99824.56;;;7.11;88.36
54978;BME280;40873;47.522;19.106;2023-03-26T02:22:40;99824.38;;;7.14;89.12
54978;BME280;40873;47.522;19.106;2023-03-26T02:25:16;99823.97;;;7.06;90.12
54978;BME280;40873;47.522;19.106;2023-03-26T02:27:44;99825.22;;;6.99;92.10
54978;BME280;40873;47.522;19.106;2023-03-26T02:30:21;99825.13;;;7.00;89.93
54978;BME280;40873;47.522;19.106;2023-03-26T02:32:52;99817.13;;;7.03;92.67
54978;BME280;40873;47.522;19.106;2023-03-26T02:35:20;99817.53;;;6.96;92.16
54978;BME280;40873;47.522;19.106;2023-03-26T02:37:48;99811.91;;;6.86;92.70
54978;BME280;40873;47.522;19.106;2023-03-26T02:40:17;99808.97;;;6.76;93.78
54978;BME280;40873;47.522;19.106;2023-03-26T02:42:47;99808.03;;;6.77;93.07
54978;BME280;40873;47.522;19.106;2023-03-26T02:45:14;99801.09;;;6.76;94.54
54978;BME280;40873;47.522;19.106;2023-03-26T02:47:41;99800.81;;;6.81;92.61
54978;BME280;40873;47.522;19.106;2023-03-26T02:50:09;99792.50;;;6.90;91.99
54978;BME280;40873;47.522;19.106;2023-03-26T02:52:37;99799.31;;;6.93;93.54
54978;BME280;40873;47.522;19.106;2023-03-26T02:55:04;99791.78;;;6.86;93.04
54978;BME280;40873;47.522;19.106;2023-03-26T02:57:32;99793.81;;;6.81;95.75
54978;BME280;40873;47.522;19.106;2023-03-26T03:00:00;99787.66;;;6.82;92.78
54978;BME280;40873;47.522;19.106;2023-03-26T03:02:30;99797.97;;;6.85;92.35
54978;BME280;40873;47.522;19.106;2023-03-26T03:04:57;99806.06;;;6.81;94.67
54978;BME280;40873;47.522;19.106;2023-03-26T03:07:27;99806.34;;;6.76;94.77
54978;BME280;40873;47.522;19.106;2023-03-26T03:09:54;99805.53;;;6.74;94.40
54978;BME280;40873;47.522;19.106;2023-03-26T03:12:21;99803.84;;;6.73;93.87
54978;BME280;40873;47.522;19.106;2023-03-26T03:14:48;99802.69;;;6.79;94.22
54978;BME280;40873;47.522;19.106;2023-03-26T03:17:15;99796.09;;;6.72;94.25
54978;BME280;40873;47.522;19.106;2023-03-26T03:19:42;99796.84;;;6.74;93.51
54978;BME280;40873;47.522;19.106;2023-03-26T03:22:09;99806.44;;;6.75;94.08
54978;BME280;40873;47.522;19.106;2023-03-26T03:24:36;99802.03;;;6.75;93.70
54978;BME280;40873;47.522;19.106;2023-03-26T03:27:04;99790.53;;;6.94;91.83
54978;BME280;40873;47.522;19.106;2023-03-26T03:29:33;99808.47;;;7.01;90.97
54978;BME280;40873;47.522;19.106;2023-03-26T03:32:00;99807.94;;;6.95;92.11
54978;BME280;40873;47.522;19.106;2023-03-26T03:34:28;99802.03;;;6.91;92.26
54978;BME280;40873;47.522;19.106;2023-03-26T03:36:54;99797.13;;;6.85;93.01
54978;BME280;40873;47.522;19.106;2023-03-26T03:39:21;99784.50;;;6.76;94.65
54978;BME280;40873;47.522;19.106;2023-03-26T03:41:48;99798.03;;;6.68;93.50
54978;BME280;40873;47.522;19.106;2023-03-26T03:44:16;99794.47;;;6.69;94.02
54978;BME280;40873;47.522;19.106;2023-03-26T03:46:42;99802.34;;;6.69;93.86
54978;BME280;40873;47.522;19.106;2023-03-26T03:49:10;99818.78;;;6.89;93.11
54978;BME280;40873;47.522;19.106;2023-03-26T03:51:36;99808.75;;;6.97;91.83
54978;BME280;40873;47.522;19.106;2023-03-26T03:54:04;99824.84;;;6.73;92.80
54978;BME280;40873;47.522;19.106;2023-03-26T03:56:34;99820.97;;;6.80;92.18
54978;BME280;40873;47.522;19.106;2023-03-26T03:59:01;99802.81;;;7.09;90.33
54978;BME280;40873;47.522;19.106;2023-03-26T04:01:28;99810.00;;;7.37;88.55
54978;BME280;40873;47.522;19.106;2023-03-26T04:03:57;99809.16;;;7.36;88.54
54978;BME280;40873;47.522;19.106;2023-03-26T04:06:24;99808.44;;;7.64;86.30
54978;BME280;40873;47.522;19.106;2023-03-26T04:08:51;99811.38;;;7.44;87.14
54978;BME280;40873;47.522;19.106;2023-03-26T04:11:21;99811.22;;;7.31;88.18
54978;BME280;40873;47.522;19.106;2023-03-26T04:13:49;99820.78;;;7.32;87.98
54978;BME280;40873;47.522;19.106;2023-03-26T04:16:16;99817.72;;;7.40;87.43
54978;BME280;40873;47.522;19.106;2023-03-26T04:18:44;99815.91;;;7.56;86.27
54978;BME280;40873;47.522;19.106;2023-03-26T04:21:14;99824.81;;;7.54;86.37
54978;BME280;40873;47.522;19.106;2023-03-26T04:23:41;99824.81;;;7.54;86.22
54978;BME280;40873;47.522;19.106;2023-03-26T04:26:13;99824.22;;;7.49;86.47
54978;BME280;40873;47.522;19.106;2023-03-26T04:28:48;99821.09;;;7.42;87.48
54978;BME280;40873;47.522;19.106;2023-03-26T04:31:21;99809.47;;;7.62;85.80
54978;BME280;40873;47.522;19.106;2023-03-26T04:33:51;99818.31;;;7.45;86.37
54978;BME280;40873;47.522;19.106;2023-03-26T04:36:30;99816.69;;;7.27;88.29
54978;BME280;40873;47.522;19.106;2023-03-26T04:39:00;99814.56;;;7.49;86.39
54978;BME280;40873;47.522;19.106;2023-03-26T04:41:28;99808.25;;;7.37;88.13
54978;BME280;40873;47.522;19.106;2023-03-26T04:43:56;99809.66;;;7.59;85.72
54978;BME280;40873;47.522;19.106;2023-03-26T04:46:22;99817.13;;;7.35;87.78
54978;BME280;40873;47.522;19.106;2023-03-26T04:48:50;99824.38;;;7.14;90.40
54978;BME280;40873;47.522;19.106;2023-03-26T04:51:19;99824.06;;;7.04;90.74
54978;BME280;40873;47.522;19.106;2023-03-26T04:53:55;99818.63;;;6.92;91.27
54978;BME280;40873;47.522;19.106;2023-03-26T04:56:46;99826.19;;;6.80;93.57
54978;BME280;40873;47.522;19.106;2023-03-26T04:59:21;99816.78;;;7.25;88.85
54978;BME280;40873;47.522;19.106;2023-03-26T05:01:52;99828.78;;;7.13;90.03
54978;BME280;40873;47.522;19.106;2023-03-26T05:04:19;99829.56;;;7.31;89.24
54978;BME280;40873;47.522;19.106;2023-03-26T05:06:46;99817.41;;;7.30;88.36
54978;BME280;40873;47.522;19.106;2023-03-26T05:09:14;99810.00;;;7.37;87.62
54978;BME280;40873;47.522;19.106;2023-03-26T05:11:41;99820.16;;;7.43;87.76
54978;BME280;40873;47.522;19.106;2023-03-26T05:14:08;99807.47;;;7.51;86.86
54978;BME280;40873;47.522;19.106;2023-03-26T05:16:35;99805.22;;;7.75;84.93
54978;BME280;40873;47.522;19.106;2023-03-26T05:19:03;99818.34;;;7.75;85.29
54978;BME280;40873;47.522;19.106;2023-03-26T05:21:30;99808.03;;;8.02;83.24
54978;BME280;40873;47.522;19.106;2023-03-26T05:23:57;99811.31;;;8.06;82.97
54978;BME280;40873;47.522;19.106;2023-03-26T05:26:24;99806.94;;;8.20;82.55
54978;BME280;40873;47.522;19.106;2023-03-26T05:28:51;99809.50;;;8.22;81.39
54978;BME280;40873;47.522;19.106;2023-03-26T05:31:19;99812.31;;;8.49;79.89
54978;BME280;40873;47.522;19.106;2023-03-26T05:33:47;99807.31;;;8.59;78.55
54978;BME280;40873;47.522;19.106;2023-03-26T05:36:15;99804.59;;;8.74;78.07
54978;BME280;40873;47.522;19.106;2023-03-26T05:38:43;99798.97;;;8.81;77.72
54978;BME280;40873;47.522;19.106;2023-03-26T05:41:15;99810.69;;;8.75;77.37
54978;BME280;40873;47.522;19.106;2023-03-26T05:43:43;99807.44;;;8.71;78.42
54978;BME280;40873;47.522;19.106;2023-03-26T05:46:14;99812.59;;;8.73;78.18
54978;BME280;40873;47.522;19.106;2023-03-26T05:48:42;99810.16;;;8.84;77.04
54978;BME280;40873;47.522;19.106;2023-03-26T05:51:09;99818.09;;;8.97;76.61
54978;BME280;40873;47.522;19.106;2023-03-26T05:53:36;99810.50;;;9.06;76.46
54978;BME280;40873;47.522;19.106;2023-03-26T05:56:03;99808.78;;;9.20;75.49
54978;BME280;40873;47.522;19.106;2023-03-26T05:58:32;99812.13;;;9.36;74.89
54978;BME280;40873;47.522;19.106;2023-03-26T06:01:07;99808.78;;;9.61;72.42
54978;BME280;40873;47.522;19.106;2023-03-26T06:03:37;99810.19;;;9.79;71.10
54978;BME280;40873;47.522;19.106;2023-03-26T06:06:10;99811.88;;;9.80;70.68
54978;BME280;40873;47.522;19.106;2023-03-26T06:08:46;99811.72;;;9.96;69.98
54978;BME280;40873;47.522;19.106;2023-03-26T06:11:28;99804.88;;;10.06;67.90
54978;BME280;40873;47.522;19.106;2023-03-26T06:13:55;99809.97;;;10.22;67.53
54978;BME280;40873;47.522;19.106;2023-03-26T06:16:22;99803.91;;;10.34;66.51
54978;BME280;40873;47.522;19.106;2023-03-26T06:18:53;99801.16;;;10.49;65.83
54978;BME280;40873;47.522;19.106;2023-03-26T06:21:22;99795.78;;;10.63;65.18
54978;BME280;40873;47.522;19.106;2023-03-26T06:23:49;99797.03;;;10.70;64.59
54978;BME280;40873;47.522;19.106;2023-03-26T06:26:17;99797.03;;;10.70;63.82
54978;BME280;40873;47.522;19.106;2023-03-26T06:28:44;99805.78;;;10.83;64.13
54978;BME280;40873;47.522;19.106;2023-03-26T06:31:11;99794.78;;;11.02;62.49
54978;BME280;40873;47.522;19.106;2023-03-26T06:33:39;99797.53;;;11.13;62.99
54978;BME280;40873;47.522;19.106;2023-03-26T06:36:06;99801.22;;;11.11;62.69
54978;BME280;40873;47.522;19.106;2023-03-26T06:38:33;99796.44;;;11.16;63.13
54978;BME280;40873;47.522;19.106;2023-03-26T06:41:04;99798.97;;;11.17;62.94
54978;BME280;40873;47.522;19.106;2023-03-26T06:43:32;99807.19;;;11.25;62.35
54978;BME280;40873;47.522;19.106;2023-03-26T06:46:00;99798.66;;;11.22;61.03
54978;BME280;40873;47.522;19.106;2023-03-26T06:48:27;99804.94;;;11.32;61.27
54978;BME280;40873;47.522;19.106;2023-03-26T06:50:54;99803.47;;;11.41;61.17
54978;BME280;40873;47.522;19.106;2023-03-26T06:53:21;99811.38;;;11.41;61.73
54978;BME280;40873;47.522;19.106;2023-03-26T06:55:48;99809.03;;;11.49;61.40
54978;BME280;40873;47.522;19.106;2023-03-26T06:58:15;99813.22;;;11.51;61.92
54978;BME280;40873;47.522;19.106;2023-03-26T07:00:42;99804.03;;;11.57;62.02
54978;BME280;40873;47.522;19.106;2023-03-26T07:03:09;99808.34;;;11.34;62.03
54978;BME280;40873;47.522;19.106;2023-03-26T07:05:39;99808.84;;;11.39;61.63
54978;BME280;40873;47.522;19.106;2023-03-26T07:08:06;99807.94;;;11.51;61.71
54978;BME280;40873;47.522;19.106;2023-03-26T07:10:33;99792.63;;;11.57;62.50
54978;BME280;40873;47.522;19.106;2023-03-26T07:13:00;99801.34;;;11.70;61.08
54978;BME280;40873;47.522;19.106;2023-03-26T07:15:28;99782.44;;;11.87;61.17
54978;BME280;40873;47.522;19.106;2023-03-26T07:17:55;99785.72;;;12.02;60.51
54978;BME280;40873;47.522;19.106;2023-03-26T07:20:22;99788.22;;;12.27;59.51
54978;BME280;40873;47.522;19.106;2023-03-26T07:22:50;99785.34;;;12.42;58.96
54978;BME280;40873;47.522;19.106;2023-03-26T07:25:17;99783.56;;;12.53;56.38
54978;BME280;40873;47.522;19.106;2023-03-26T07:33:17;99774.41;;;13.13;54.40
54978;BME280;40873;47.522;19.106;2023-03-26T07:46:45;99802.25;;;13.74;50.90
54978;BME280;40873;47.522;19.106;2023-03-26T07:49:14;99788.41;;;13.70;50.09
54978;BME280;40873;47.522;19.106;2023-03-26T07:51:43;99793.09;;;13.66;50.87
54978;BME280;40873;47.522;19.106;2023-03-26T07:54:10;99789.47;;;13.99;50.20
54978;BME280;40873;47.522;19.106;2023-03-26T07:56:48;99790.16;;;13.81;49.89
54978;BME280;40873;47.522;19.106;2023-03-26T07:59:19;99793.16;;;14.08;49.65
54978;BME280;40873;47.522;19.106;2023-03-26T08:16:02;99811.13;;;12.84;55.26
54978;BME280;40873;47.522;19.106;2023-03-26T08:21:42;99798.13;;;13.15;51.53
54978;BME280;40873;47.522;19.106;2023-03-26T08:27:39;99801.97;;;12.55;52.76
54978;BME280;40873;47.522;19.106;2023-03-26T08:32:34;99801.13;;;12.54;53.15
54978;BME280;40873;47.522;19.106;2023-03-26T08:35:01;99794.97;;;12.43;52.92
54978;BME280;40873;47.522;19.106;2023-03-26T08:37:29;99792.34;;;12.65;53.09
54978;BME280;40873;47.522;19.106;2023-03-26T08:39:56;99791.41;;;12.77;52.81
54978;BME280;40873;47.522;19.106;2023-03-26T08:45:48;99784.81;;;12.94;51.44
54978;BME280;40873;47.522;19.106;2023-03-26T09:30:22;99752.88;;;14.14;51.10
54978;BME280;40873;47.522;19.106;2023-03-26T09:35:52;99753.41;;;13.76;50.77
54978;BME280;40873;47.522;19.106;2023-03-26T09:47:06;99734.38;;;14.85;48.27
54978;BME280;40873;47.522;19.106;2023-03-26T09:55:37;99731.59;;;15.95;45.10
54978;BME280;40873;47.522;19.106;2023-03-26T10:01:11;99723.66;;;15.66;43.43
54978;BME280;40873;47.522;19.106;2023-03-26T10:03:55;99723.06;;;15.62;43.44
54978;BME280;40873;47.522;19.106;2023-03-26T10:06:45;99710.56;;;16.21;42.33
54978;BME280;40873;47.522;19.106;2023-03-26T10:14:47;99684.25;;;17.27;39.72
54978;BME280;40873;47.522;19.106;2023-03-26T10:22:37;99686.53;;;15.93;41.41
54978;BME280;40873;47.522;19.106;2023-03-26T10:28:12;99677.56;;;15.94;41.96
54978;BME280;40873;47.522;19.106;2023-03-26T10:36:31;99684.19;;;14.42;44.56
54978;BME280;40873;47.522;19.106;2023-03-26T10:42:37;99693.00;;;13.38;53.62
54978;BME280;40873;47.522;19.106;2023-03-26T10:45:43;99687.19;;;12.89;57.57
54978;BME280;40873;47.522;19.106;2023-03-26T10:51:46;99660.03;;;13.31;60.09
54978;BME280;40873;47.522;19.106;2023-03-26T10:56:54;99665.25;;;15.16;55.43
54978;BME280;40873;47.522;19.106;2023-03-26T10:59:24;99662.31;;;15.19;52.83
54978;BME280;40873;47.522;19.106;2023-03-26T11:05:02;99653.44;;;14.70;52.95
54978;BME280;40873;47.522;19.106;2023-03-26T11:07:44;99638.97;;;15.32;49.70
54978;BME280;40873;47.522;19.106;2023-03-26T11:10:19;99637.44;;;15.10;50.35
54978;BME280;40873;47.522;19.106;2023-03-26T11:13:12;99631.53;;;15.74;47.76
54978;BME280;40873;47.522;19.106;2023-03-26T11:16:01;99628.06;;;15.25;47.53
54978;BME280;40873;47.522;19.106;2023-03-26T11:19:03;99624.53;;;14.76;49.52
54978;BME280;40873;47.522;19.106;2023-03-26T11:21:49;99617.25;;;14.69;49.94
54978;BME280;40873;47.522;19.106;2023-03-26T11:24:36;99614.47;;;15.48;47.72
54978;BME280;40873;47.522;19.106;2023-03-26T11:27:30;99599.00;;;16.55;47.55
54978;BME280;40873;47.522;19.106;2023-03-26T11:32:43;99588.72;;;16.42;45.51
54978;BME280;40873;47.522;19.106;2023-03-26T11:35:19;99589.84;;;16.67;44.83
54978;BME280;40873;47.522;19.106;2023-03-26T11:38:25;99580.13;;;15.93;46.53
54978;BME280;40873;47.522;19.106;2023-03-26T11:40:55;99577.28;;;15.19;48.24
54978;BME280;40873;47.522;19.106;2023-03-26T11:43:34;99557.13;;;16.02;47.80
54978;BME280;40873;47.522;19.106;2023-03-26T11:46:11;99565.75;;;17.22;44.37
54978;BME280;40873;47.522;19.106;2023-03-26T11:48:49;99563.69;;;17.16;43.63
54978;BME280;40873;47.522;19.106;2023-03-26T11:51:34;99541.38;;;17.87;43.10
54978;BME280;40873;47.522;19.106;2023-03-26T11:54:04;99545.06;;;17.42;43.47
54978;BME280;40873;47.522;19.106;2023-03-26T11:56:32;99536.88;;;17.61;42.28
54978;BME280;40873;47.522;19.106;2023-03-26T12:01:45;99526.72;;;19.08;39.70
54978;BME280;40873;47.522;19.106;2023-03-26T12:06:57;99511.19;;;19.28;40.11
54978;BME280;40873;47.522;19.106;2023-03-26T12:09:25;99504.47;;;18.67;38.55
54978;BME280;40873;47.522;19.106;2023-03-26T12:11:58;99499.97;;;17.74;41.16
54978;BME280;40873;47.522;19.106;2023-03-26T12:14:29;99506.31;;;17.30;42.08
54978;BME280;40873;47.522;19.106;2023-03-26T12:16:58;99491.38;;;17.37;42.18
54978;BME280;40873;47.522;19.106;2023-03-26T12:19:37;99490.25;;;16.95;41.94
54978;BME280;40873;47.522;19.106;2023-03-26T12:22:10;99477.56;;;17.15;42.21
54978;BME280;40873;47.522;19.106;2023-03-26T12:25:00;99473.34;;;17.83;42.27
54978;BME280;40873;47.522;19.106;2023-03-26T12:27:28;99457.34;;;19.23;38.73
54978;BME280;40873;47.522;19.106;2023-03-26T12:30:24;99457.25;;;19.71;38.81
54978;BME280;40873;47.522;19.106;2023-03-26T12:33:18;99453.03;;;18.81;38.35
54978;BME280;40873;47.522;19.106;2023-03-26T12:35:41;99446.97;;;20.53;34.64
54978;BME280;40873;47.522;19.106;2023-03-26T12:38:21;99443.38;;;22.10;31.97
54978;BME280;40873;47.522;19.106;2023-03-26T12:41:09;99439.75;;;22.33;30.97
54978;BME280;40873;47.522;19.106;2023-03-26T12:44:29;99424.72;;;22.24;31.44
54978;BME280;40873;47.522;19.106;2023-03-26T12:47:21;99416.97;;;24.78;28.58
54978;BME280;40873;47.522;19.106;2023-03-26T12:50:13;99403.00;;;23.39;28.84
54978;BME280;40873;47.522;19.106;2023-03-26T12:55:49;99404.06;;;23.44;29.08
54978;BME280;40873;47.522;19.106;2023-03-26T13:01:21;99401.47;;;19.91;33.73
54978;BME280;40873;47.522;19.106;2023-03-26T13:06:44;99407.03;;;20.36;32.80
54978;BME280;40873;47.522;19.106;2023-03-26T13:13:36;99395.06;;;17.32;34.77
54978;BME280;40873;47.522;19.106;2023-03-26T13:19:15;99384.56;;;18.39;32.99
54978;BME280;40873;47.522;19.106;2023-03-26T13:24:17;99361.75;;;21.75;28.78
54978;BME280;40873;47.522;19.106;2023-03-26T13:29:40;99349.63;;;22.37;28.25
54978;BME280;40873;47.522;19.106;2023-03-26T13:32:48;99352.63;;;20.96;29.36
54978;BME280;40873;47.522;19.106;2023-03-26T13:35:35;99350.19;;;18.36;33.78
54978;BME280;40873;47.522;19.106;2023-03-26T13:38:23;99345.88;;;17.26;34.96
54978;BME280;40873;47.522;19.106;2023-03-26T13:43:31;99340.97;;;18.14;34.22
54978;BME280;40873;47.522;19.106;2023-03-26T13:46:12;99328.19;;;19.22;32.58
54978;BME280;40873;47.522;19.106;2023-03-26T13:54:27;99314.25;;;25.57;23.71
54978;BME280;40873;47.522;19.106;2023-03-26T13:57:23;99322.50;;;25.18;23.79
54978;BME280;40873;47.522;19.106;2023-03-26T14:00:10;99310.66;;;20.88;29.07
54978;BME280;40873;47.522;19.106;2023-03-26T14:02:41;99320.59;;;20.65;29.89
54978;BME280;40873;47.522;19.106;2023-03-26T14:07:44;99299.53;;;18.83;32.55
54978;BME280;40873;47.522;19.106;2023-03-26T14:10:20;99295.16;;;20.46;31.14
54978;BME280;40873;47.522;19.106;2023-03-26T14:12:59;99278.94;;;23.95;26.25
54978;BME280;40873;47.522;19.106;2023-03-26T14:15:39;99282.25;;;21.96;27.32
54978;BME280;40873;47.522;19.106;2023-03-26T14:39:18;99267.66;;;20.82;27.78
54978;BME280;40873;47.522;19.106;2023-03-26T14:41:54;99250.41;;;20.32;28.63
54978;BME280;40873;47.522;19.106;2023-03-26T14:45:02;99244.94;;;20.02;28.79
54978;BME280;40873;47.522;19.106;2023-03-26T14:47:39;99255.09;;;18.90;29.53
54978;BME280;40873;47.522;19.106;2023-03-26T14:50:22;99252.84;;;18.71;29.90
54978;BME280;40873;47.522;19.106;2023-03-26T14:52:58;99233.97;;;18.48;30.14
54978;BME280;40873;47.522;19.106;2023-03-26T15:01:20;99233.81;;;19.05;27.47
54978;BME280;40873;47.522;19.106;2023-03-26T15:27:09;99186.22;;;22.47;24.05
54978;BME280;40873;47.522;19.106;2023-03-26T15:41:28;99163.50;;;20.64;26.95
54978;BME280;40873;47.522;19.106;2023-03-26T15:44:11;99172.72;;;20.32;27.83
54978;BME280;40873;47.522;19.106;2023-03-26T15:46:52;99177.91;;;19.58;29.21
54978;BME280;40873;47.522;19.106;2023-03-26T15:49:44;99160.94;;;19.11;29.47
54978;BME280;40873;47.522;19.106;2023-03-26T15:52:27;99170.28;;;19.69;28.88
54978;BME280;40873;47.522;19.106;2023-03-26T15:55:04;99163.47;;;19.13;29.58
54978;BME280;40873;47.522;19.106;2023-03-26T15:57:57;99164.88;;;19.01;30.27
54978;BME280;40873;47.522;19.106;2023-03-26T16:00:33;99149.59;;;19.40;30.34
54978;BME280;40873;47.522;19.106;2023-03-26T16:10:55;99133.31;;;18.01;32.56
54978;BME280;40873;47.522;19.106;2023-03-26T16:34:49;99103.41;;;15.81;37.18
54978;BME280;40873;47.522;19.106;2023-03-26T16:43:27;99095.63;;;15.62;37.67
54978;BME280;40873;47.522;19.106;2023-03-26T16:57:26;99110.44;;;15.11;38.13
54978;BME280;40873;47.522;19.106;2023-03-26T17:00:16;99103.69;;;14.99;38.78
54978;BME280;40873;47.522;19.106;2023-03-26T17:11:20;99108.13;;;14.80;39.57
54978;BME280;40873;47.522;19.106;2023-03-26T17:14:06;99107.06;;;14.73;39.92
54978;BME280;40873;47.522;19.106;2023-03-26T17:16:46;99105.53;;;14.71;40.03
54978;BME280;40873;47.522;19.106;2023-03-26T17:22:04;99114.25;;;14.63;40.63
54978;BME280;40873;47.522;19.106;2023-03-26T17:27:51;99104.06;;;14.59;41.23
54978;BME280;40873;47.522;19.106;2023-03-26T17:35:38;99112.38;;;14.46;41.28
54978;BME280;40873;47.522;19.106;2023-03-26T17:40:50;99105.84;;;14.40;41.37
54978;BME280;40873;47.522;19.106;2023-03-26T17:43:44;99109.16;;;14.42;41.56
54978;BME280;40873;47.522;19.106;2023-03-26T17:46:34;99098.31;;;14.36;41.97
54978;BME280;40873;47.522;19.106;2023-03-26T17:49:12;99098.88;;;14.30;41.79
54978;BME280;40873;47.522;19.106;2023-03-26T17:52:01;99101.53;;;14.30;41.96
54978;BME280;40873;47.522;19.106;2023-03-26T17:54:35;99105.34;;;14.27;42.36
54978;BME280;40873;47.522;19.106;2023-03-26T17:57:13;99098.22;;;14.27;41.94
54978;BME280;40873;47.522;19.106;2023-03-26T17:59:43;99105.03;;;14.30;42.55
54978;BME280;40873;47.522;19.106;2023-03-26T18:02:23;99098.38;;;14.26;42.25
54978;BME280;40873;47.522;19.106;2023-03-26T18:04:56;99104.34;;;14.28;42.02
54978;BME280;40873;47.522;19.106;2023-03-26T18:08:02;99107.16;;;14.26;42.27
54978;BME280;40873;47.522;19.106;2023-03-26T18:10:46;99102.97;;;14.24;42.69
54978;BME280;40873;47.522;19.106;2023-03-26T18:16:20;99099.47;;;14.23;42.71
54978;BME280;40873;47.522;19.106;2023-03-26T18:18:58;99102.28;;;14.22;42.67
54978;BME280;40873;47.522;19.106;2023-03-26T18:21:35;99097.06;;;14.30;42.48
54978;BME280;40873;47.522;19.106;2023-03-26T18:24:05;99094.88;;;14.25;42.63
54978;BME280;40873;47.522;19.106;2023-03-26T18:26:37;99090.00;;;14.21;43.11
54978;BME280;40873;47.522;19.106;2023-03-26T18:29:37;99095.84;;;14.24;42.89
54978;BME280;40873;47.522;19.106;2023-03-26T18:34:45;99088.84;;;14.23;42.68
54978;BME280;40873;47.522;19.106;2023-03-26T18:37:32;99078.97;;;14.16;42.84
54978;BME280;40873;47.522;19.106;2023-03-26T18:40:14;99073.16;;;14.12;42.51
54978;BME280;40873;47.522;19.106;2023-03-26T18:42:49;99071.34;;;14.13;42.68
54978;BME280;40873;47.522;19.106;2023-03-26T18:47:57;99065.63;;;14.08;43.02
54978;BME280;40873;47.522;19.106;2023-03-26T18:50:34;99061.31;;;14.07;42.81
54978;BME280;40873;47.522;19.106;2023-03-26T18:53:05;99057.00;;;14.06;43.01
54978;BME280;40873;47.522;19.106;2023-03-26T18:55:33;99048.63;;;14.01;42.78
54978;BME280;40873;47.522;19.106;2023-03-26T18:58:28;99041.94;;;13.96;43.61
54978;BME280;40873;47.522;19.106;2023-03-26T19:01:00;99043.75;;;13.96;43.66